sensor_id;sensor_type;location;lat;lon;timestamp;temperature;humidity
24618;DHT22;12762;51.730;5.356;2024-02-28T00:00:02;4.20;81.80
24618;DHT22;12762;51.730;5.356;2024-02-28T00:02:30;4.20;81.80
24618;DHT22;12762;51.730;5.356;2024-02-28T00:04:57;4.20;81.80
24618;DHT22;12762;51.730;5.356;2024-02-28T00:07:25;4.20;81.80
24618;DHT22;12762;51.730;5.356;2024-02-28T00:09:52;4.20;81.80
24618;DHT22;12762;51.730;5.356;2024-02-28T00:12:19;4.20;81.80
24618;DHT22;12762;51.730;5.356;2024-02-28T00:14:46;4.20;81.80
24618;DHT22;12762;51.730;5.356;2024-02-28T00:17:13;4.20;81.90
24618;DHT22;12762;51.730;5.356;2024-02-28T00:19:40;4.20;81.90
24618;DHT22;12762;51.730;5.356;2024-02-28T00:22:07;4.20;81.90
24618;DHT22;12762;51.730;5.356;2024-02-28T00:24:33;4.20;82.00
24618;DHT22;12762;51.730;5.356;2024-02-28T00:27:03;4.20;82.00
24618;DHT22;12762;51.730;5.356;2024-02-28T00:29:29;4.20;82.00
24618;DHT22;12762;51.730;5.356;2024-02-28T00:31:56;4.20;82.10
24618;DHT22;12762;51.730;5.356;2024-02-28T00:34:23;4.20;82.10
24618;DHT22;12762;51.730;5.356;2024-02-28T00:36:50;4.20;82.10
24618;DHT22;12762;51.730;5.356;2024-02-28T00:39:22;4.10;82.10
24618;DHT22;12762;51.730;5.356;2024-02-28T00:41:49;4.10;82.10
24618;DHT22;12762;51.730;5.356;2024-02-28T00:44:15;4.10;82.20
24618;DHT22;12762;51.730;5.356;2024-02-28T00:46:42;4.10;82.30
24618;DHT22;12762;51.730;5.356;2024-02-28T00:49:09;4.00;82.10
24618;DHT22;12762;51.730;5.356;2024-02-28T00:51:35;4.00;82.30
24618;DHT22;12762;51.730;5.356;2024-02-28T00:54:04;4.00;82.30
24618;DHT22;12762;51.730;5.356;2024-02-28T00:56:30;4.00;82.40
24618;DHT22;12762;51.730;5.356;2024-02-28T00:58:57;3.90;82.30
24618;DHT22;12762;51.730;5.356;2024-02-28T01:01:24;3.90;82.40
24618;DHT22;12762;51.730;5.356;2024-02-28T01:03:51;3.90;83.20
24618;DHT22;12762;51.730;5.356;2024-02-28T01:06:18;3.80;82.40
24618;DHT22;12762;51.730;5.356;2024-02-28T01:08:44;3.80;82.40
24618;DHT22;12762;51.730;5.356;2024-02-28T01:11:11;3.80;82.40
24618;DHT22;12762;51.730;5.356;2024-02-28T01:13:38;3.80;82.50
24618;DHT22;12762;51.730;5.356;2024-02-28T01:16:05;3.70;82.40
24618;DHT22;12762;51.730;5.356;2024-02-28T01:18:32;3.70;82.50
24618;DHT22;12762;51.730;5.356;2024-02-28T01:20:59;3.60;82.50
24618;DHT22;12762;51.730;5.356;2024-02-28T01:23:26;3.60;82.50
24618;DHT22;12762;51.730;5.356;2024-02-28T01:25:56;3.60;82.60
24618;DHT22;12762;51.730;5.356;2024-02-28T01:28:22;3.60;82.60
24618;DHT22;12762;51.730;5.356;2024-02-28T01:30:49;3.60;82.60
24618;DHT22;12762;51.730;5.356;2024-02-28T01:33:16;3.50;82.60
24618;DHT22;12762;51.730;5.356;2024-02-28T01:35:43;3.50;82.70
24618;DHT22;12762;51.730;5.356;2024-02-28T01:38:10;3.50;82.70
24618;DHT22;12762;51.730;5.356;2024-02-28T01:40:45;3.50;82.70
24618;DHT22;12762;51.730;5.356;2024-02-28T01:43:12;3.50;82.70
24618;DHT22;12762;51.730;5.356;2024-02-28T01:45:39;3.40;82.70
24618;DHT22;12762;51.730;5.356;2024-02-28T01:48:09;3.40;82.70
24618;DHT22;12762;51.730;5.356;2024-02-28T01:50:41;3.40;82.80
24618;DHT22;12762;51.730;5.356;2024-02-28T01:53:09;3.40;82.80
24618;DHT22;12762;51.730;5.356;2024-02-28T01:55:38;3.40;82.80
24618;DHT22;12762;51.730;5.356;2024-02-28T01:58:05;3.30;82.80
24618;DHT22;12762;51.730;5.356;2024-02-28T02:00:36;3.30;82.80
24618;DHT22;12762;51.730;5.356;2024-02-28T02:03:04;3.30;82.90
24618;DHT22;12762;51.730;5.356;2024-02-28T02:05:31;3.30;82.90
24618;DHT22;12762;51.730;5.356;2024-02-28T02:07:58;3.30;82.90
24618;DHT22;12762;51.730;5.356;2024-02-28T02:10:25;3.30;82.90
24618;DHT22;12762;51.730;5.356;2024-02-28T02:12:53;3.20;82.90
24618;DHT22;12762;51.730;5.356;2024-02-28T02:15:20;3.20;82.90
24618;DHT22;12762;51.730;5.356;2024-02-28T02:17:46;3.20;83.00
24618;DHT22;12762;51.730;5.356;2024-02-28T02:20:14;3.20;82.90
24618;DHT22;12762;51.730;5.356;2024-02-28T02:22:41;3.20;83.00
24618;DHT22;12762;51.730;5.356;2024-02-28T02:25:08;3.10;82.90
24618;DHT22;12762;51.730;5.356;2024-02-28T02:27:35;3.10;82.90
24618;DHT22;12762;51.730;5.356;2024-02-28T02:30:02;3.10;82.90
24618;DHT22;12762;51.730;5.356;2024-02-28T02:32:29;3.10;82.90
24618;DHT22;12762;51.730;5.356;2024-02-28T02:34:56;3.00;83.00
24618;DHT22;12762;51.730;5.356;2024-02-28T02:37:23;3.00;83.10
24618;DHT22;12762;51.730;5.356;2024-02-28T02:39:50;3.00;83.20
24618;DHT22;12762;51.730;5.356;2024-02-28T02:42:17;3.00;83.30
24618;DHT22;12762;51.730;5.356;2024-02-28T02:44:45;3.00;83.40
24618;DHT22;12762;51.730;5.356;2024-02-28T02:47:12;3.00;83.40
24618;DHT22;12762;51.730;5.356;2024-02-28T02:49:38;3.00;83.50
24618;DHT22;12762;51.730;5.356;2024-02-28T02:52:05;3.00;83.60
24618;DHT22;12762;51.730;5.356;2024-02-28T02:54:32;3.00;83.60
24618;DHT22;12762;51.730;5.356;2024-02-28T02:56:59;3.00;83.60
24618;DHT22;12762;51.730;5.356;2024-02-28T02:59:26;3.00;83.70
24618;DHT22;12762;51.730;5.356;2024-02-28T03:01:53;3.00;83.70
24618;DHT22;12762;51.730;5.356;2024-02-28T03:04:19;3.10;83.90
24618;DHT22;12762;51.730;5.356;2024-02-28T03:06:49;3.10;83.90
24618;DHT22;12762;51.730;5.356;2024-02-28T03:09:16;3.10;84.00
24618;DHT22;12762;51.730;5.356;2024-02-28T03:11:43;3.10;83.80
24618;DHT22;12762;51.730;5.356;2024-02-28T03:14:10;3.10;83.80
24618;DHT22;12762;51.730;5.356;2024-02-28T03:16:44;3.10;83.70
24618;DHT22;12762;51.730;5.356;2024-02-28T03:19:11;3.10;83.70
24618;DHT22;12762;51.730;5.356;2024-02-28T03:21:38;3.10;83.60
24618;DHT22;12762;51.730;5.356;2024-02-28T03:24:04;3.10;83.70
24618;DHT22;12762;51.730;5.356;2024-02-28T03:26:31;3.10;83.70
24618;DHT22;12762;51.730;5.356;2024-02-28T03:28:59;3.10;83.60
24618;DHT22;12762;51.730;5.356;2024-02-28T03:31:26;3.10;84.50
24618;DHT22;12762;51.730;5.356;2024-02-28T03:33:54;3.10;83.60
24618;DHT22;12762;51.730;5.356;2024-02-28T03:36:21;3.00;83.50
24618;DHT22;12762;51.730;5.356;2024-02-28T03:38:51;3.00;83.60
24618;DHT22;12762;51.730;5.356;2024-02-28T03:41:17;3.00;83.70
24618;DHT22;12762;51.730;5.356;2024-02-28T03:43:44;3.00;83.70
24618;DHT22;12762;51.730;5.356;2024-02-28T03:46:11;3.00;83.70
24618;DHT22;12762;51.730;5.356;2024-02-28T03:48:41;3.00;83.70
24618;DHT22;12762;51.730;5.356;2024-02-28T03:51:08;2.90;83.60
24618;DHT22;12762;51.730;5.356;2024-02-28T03:53:35;2.90;83.60
24618;DHT22;12762;51.730;5.356;2024-02-28T03:56:04;2.90;83.60
24618;DHT22;12762;51.730;5.356;2024-02-28T03:58:31;2.90;83.60
24618;DHT22;12762;51.730;5.356;2024-02-28T04:00:58;2.90;83.80
24618;DHT22;12762;51.730;5.356;2024-02-28T04:03:25;2.90;83.80
24618;DHT22;12762;51.730;5.356;2024-02-28T04:05:52;2.90;83.90
24618;DHT22;12762;51.730;5.356;2024-02-28T04:08:19;2.80;83.80
24618;DHT22;12762;51.730;5.356;2024-02-28T04:10:45;2.80;83.80
24618;DHT22;12762;51.730;5.356;2024-02-28T04:13:12;2.80;83.80
24618;DHT22;12762;51.730;5.356;2024-02-28T04:15:39;2.80;83.80
24618;DHT22;12762;51.730;5.356;2024-02-28T04:18:06;2.80;83.90
24618;DHT22;12762;51.730;5.356;2024-02-28T04:20:33;2.80;83.90
24618;DHT22;12762;51.730;5.356;2024-02-28T04:23:03;2.80;83.90
24618;DHT22;12762;51.730;5.356;2024-02-28T04:25:30;2.90;84.10
24618;DHT22;12762;51.730;5.356;2024-02-28T04:27:56;2.90;84.10
24618;DHT22;12762;51.730;5.356;2024-02-28T04:30:26;2.90;84.10
24618;DHT22;12762;51.730;5.356;2024-02-28T04:32:53;2.90;84.10
24618;DHT22;12762;51.730;5.356;2024-02-28T04:35:20;3.00;84.20
24618;DHT22;12762;51.730;5.356;2024-02-28T04:37:47;3.00;84.10
24618;DHT22;12762;51.730;5.356;2024-02-28T04:40:14;3.00;84.10
24618;DHT22;12762;51.730;5.356;2024-02-28T04:42:42;3.10;84.20
24618;DHT22;12762;51.730;5.356;2024-02-28T04:45:12;3.10;84.20
24618;DHT22;12762;51.730;5.356;2024-02-28T04:47:39;3.10;84.10
24618;DHT22;12762;51.730;5.356;2024-02-28T04:50:11;3.20;84.20
24618;DHT22;12762;51.730;5.356;2024-02-28T04:52:38;3.20;84.10
24618;DHT22;12762;51.730;5.356;2024-02-28T04:55:05;3.20;84.10
24618;DHT22;12762;51.730;5.356;2024-02-28T04:57:32;3.20;84.10
24618;DHT22;12762;51.730;5.356;2024-02-28T04:59:59;3.20;84.10
24618;DHT22;12762;51.730;5.356;2024-02-28T05:02:26;3.20;84.10
24618;DHT22;12762;51.730;5.356;2024-02-28T05:04:53;3.20;84.10
24618;DHT22;12762;51.730;5.356;2024-02-28T05:07:19;3.20;84.10
24618;DHT22;12762;51.730;5.356;2024-02-28T05:09:46;3.20;84.10
24618;DHT22;12762;51.730;5.356;2024-02-28T05:12:13;3.20;84.10
24618;DHT22;12762;51.730;5.356;2024-02-28T05:14:40;3.20;84.10
24618;DHT22;12762;51.730;5.356;2024-02-28T05:17:07;3.20;84.10
24618;DHT22;12762;51.730;5.356;2024-02-28T05:19:33;3.20;84.10
24618;DHT22;12762;51.730;5.356;2024-02-28T05:22:00;3.10;84.20
24618;DHT22;12762;51.730;5.356;2024-02-28T05:24:28;3.10;84.30
24618;DHT22;12762;51.730;5.356;2024-02-28T05:26:55;3.10;84.30
24618;DHT22;12762;51.730;5.356;2024-02-28T05:29:21;3.10;84.40
24618;DHT22;12762;51.730;5.356;2024-02-28T05:31:48;3.10;84.30
24618;DHT22;12762;51.730;5.356;2024-02-28T05:34:15;3.10;84.50
24618;DHT22;12762;51.730;5.356;2024-02-28T05:36:43;3.10;85.20
24618;DHT22;12762;51.730;5.356;2024-02-28T05:39:10;3.10;84.50
24618;DHT22;12762;51.730;5.356;2024-02-28T05:41:37;3.10;84.50
24618;DHT22;12762;51.730;5.356;2024-02-28T05:44:03;3.10;84.50
24618;DHT22;12762;51.730;5.356;2024-02-28T05:46:30;3.10;84.60
24618;DHT22;12762;51.730;5.356;2024-02-28T05:48:57;3.10;84.50
24618;DHT22;12762;51.730;5.356;2024-02-28T05:51:24;3.10;84.50
24618;DHT22;12762;51.730;5.356;2024-02-28T05:53:51;3.20;84.70
24618;DHT22;12762;51.730;5.356;2024-02-28T05:56:18;3.20;84.70
24618;DHT22;12762;51.730;5.356;2024-02-28T05:58:47;3.20;84.70
24618;DHT22;12762;51.730;5.356;2024-02-28T06:01:18;3.20;84.70
24618;DHT22;12762;51.730;5.356;2024-02-28T06:03:47;3.20;84.60
24618;DHT22;12762;51.730;5.356;2024-02-28T06:06:14;3.10;84.50
24618;DHT22;12762;51.730;5.356;2024-02-28T06:08:42;3.20;84.60
24618;DHT22;12762;51.730;5.356;2024-02-28T06:11:09;3.20;84.60
24618;DHT22;12762;51.730;5.356;2024-02-28T06:13:39;3.20;84.60
24618;DHT22;12762;51.730;5.356;2024-02-28T06:16:07;3.20;84.70
24618;DHT22;12762;51.730;5.356;2024-02-28T06:18:34;3.10;84.60
24618;DHT22;12762;51.730;5.356;2024-02-28T06:21:01;3.10;84.60
24618;DHT22;12762;51.730;5.356;2024-02-28T06:23:30;3.10;84.60
24618;DHT22;12762;51.730;5.356;2024-02-28T06:25:57;3.10;84.60
24618;DHT22;12762;51.730;5.356;2024-02-28T06:28:24;3.10;84.70
24618;DHT22;12762;51.730;5.356;2024-02-28T06:30:51;3.10;84.70
24618;DHT22;12762;51.730;5.356;2024-02-28T06:33:18;3.10;84.80
24618;DHT22;12762;51.730;5.356;2024-02-28T06:35:45;3.10;84.80
24618;DHT22;12762;51.730;5.356;2024-02-28T06:38:12;3.10;84.80
24618;DHT22;12762;51.730;5.356;2024-02-28T06:40:39;3.10;84.80
24618;DHT22;12762;51.730;5.356;2024-02-28T06:43:06;3.10;84.80
24618;DHT22;12762;51.730;5.356;2024-02-28T06:45:35;3.20;85.00
24618;DHT22;12762;51.730;5.356;2024-02-28T06:48:04;3.20;85.00
24618;DHT22;12762;51.730;5.356;2024-02-28T06:50:31;3.10;84.90
24618;DHT22;12762;51.730;5.356;2024-02-28T06:52:57;3.20;85.00
24618;DHT22;12762;51.730;5.356;2024-02-28T06:55:24;3.20;85.00
24618;DHT22;12762;51.730;5.356;2024-02-28T06:57:51;3.20;85.00
24618;DHT22;12762;51.730;5.356;2024-02-28T07:00:18;3.30;85.10
24618;DHT22;12762;51.730;5.356;2024-02-28T07:02:46;3.30;85.10
24618;DHT22;12762;51.730;5.356;2024-02-28T07:05:12;3.30;85.10
24618;DHT22;12762;51.730;5.356;2024-02-28T07:07:39;3.30;85.10
24618;DHT22;12762;51.730;5.356;2024-02-28T07:10:07;3.40;85.20
24618;DHT22;12762;51.730;5.356;2024-02-28T07:12:33;3.40;85.20
24618;DHT22;12762;51.730;5.356;2024-02-28T07:15:01;3.50;85.30
24618;DHT22;12762;51.730;5.356;2024-02-28T07:17:31;3.50;85.30
24618;DHT22;12762;51.730;5.356;2024-02-28T07:19:58;3.50;85.20
24618;DHT22;12762;51.730;5.356;2024-02-28T07:22:25;3.60;85.30
24618;DHT22;12762;51.730;5.356;2024-02-28T07:24:51;3.60;85.20
24618;DHT22;12762;51.730;5.356;2024-02-28T07:27:18;3.70;85.30
24618;DHT22;12762;51.730;5.356;2024-02-28T07:29:45;3.70;85.30
24618;DHT22;12762;51.730;5.356;2024-02-28T07:32:12;3.70;85.30
24618;DHT22;12762;51.730;5.356;2024-02-28T07:34:39;3.80;85.40
24618;DHT22;12762;51.730;5.356;2024-02-28T07:37:06;3.80;85.40
24618;DHT22;12762;51.730;5.356;2024-02-28T07:39:33;3.80;85.30
24618;DHT22;12762;51.730;5.356;2024-02-28T07:42:00;3.90;85.40
24618;DHT22;12762;51.730;5.356;2024-02-28T07:44:27;4.00;85.40
24618;DHT22;12762;51.730;5.356;2024-02-28T07:47:00;4.00;85.40
24618;DHT22;12762;51.730;5.356;2024-02-28T07:49:26;4.00;85.40
24618;DHT22;12762;51.730;5.356;2024-02-28T07:51:54;4.00;85.40
24618;DHT22;12762;51.730;5.356;2024-02-28T07:54:22;4.10;85.40
24618;DHT22;12762;51.730;5.356;2024-02-28T07:56:49;4.10;85.50
24618;DHT22;12762;51.730;5.356;2024-02-28T07:59:15;4.10;85.50
24618;DHT22;12762;51.730;5.356;2024-02-28T08:01:42;4.20;85.60
24618;DHT22;12762;51.730;5.356;2024-02-28T08:04:10;4.20;85.60
24618;DHT22;12762;51.730;5.356;2024-02-28T08:06:40;4.30;85.70
24618;DHT22;12762;51.730;5.356;2024-02-28T08:09:07;4.30;85.70
24618;DHT22;12762;51.730;5.356;2024-02-28T08:11:38;4.30;85.70
24618;DHT22;12762;51.730;5.356;2024-02-28T08:14:04;4.40;85.80
24618;DHT22;12762;51.730;5.356;2024-02-28T08:16:31;4.50;85.80
24618;DHT22;12762;51.730;5.356;2024-02-28T08:18:58;4.50;85.80
24618;DHT22;12762;51.730;5.356;2024-02-28T08:21:25;4.60;85.90
24618;DHT22;12762;51.730;5.356;2024-02-28T08:23:53;4.60;85.90
24618;DHT22;12762;51.730;5.356;2024-02-28T08:26:23;4.70;86.00
24618;DHT22;12762;51.730;5.356;2024-02-28T08:28:49;4.80;86.10
24618;DHT22;12762;51.730;5.356;2024-02-28T08:31:16;4.80;86.00
24618;DHT22;12762;51.730;5.356;2024-02-28T08:33:43;4.90;86.10
24618;DHT22;12762;51.730;5.356;2024-02-28T08:36:10;4.90;86.10
24618;DHT22;12762;51.730;5.356;2024-02-28T08:38:37;4.90;86.00
24618;DHT22;12762;51.730;5.356;2024-02-28T08:41:08;5.00;86.00
24618;DHT22;12762;51.730;5.356;2024-02-28T08:43:39;5.00;86.00
24618;DHT22;12762;51.730;5.356;2024-02-28T08:46:06;5.00;86.00
24618;DHT22;12762;51.730;5.356;2024-02-28T08:48:33;5.00;86.10
24618;DHT22;12762;51.730;5.356;2024-02-28T08:51:00;5.00;86.10
24618;DHT22;12762;51.730;5.356;2024-02-28T08:53:28;5.10;86.10
24618;DHT22;12762;51.730;5.356;2024-02-28T08:55:54;5.10;86.10
24618;DHT22;12762;51.730;5.356;2024-02-28T08:58:21;5.10;86.10
24618;DHT22;12762;51.730;5.356;2024-02-28T09:00:48;5.20;86.30
24618;DHT22;12762;51.730;5.356;2024-02-28T09:03:19;5.20;86.40
24618;DHT22;12762;51.730;5.356;2024-02-28T09:05:48;5.20;86.50
24618;DHT22;12762;51.730;5.356;2024-02-28T09:08:15;5.20;86.40
24618;DHT22;12762;51.730;5.356;2024-02-28T09:10:42;5.30;86.60
24618;DHT22;12762;51.730;5.356;2024-02-28T09:13:08;5.30;86.60
24618;DHT22;12762;51.730;5.356;2024-02-28T09:15:37;5.40;86.70
24618;DHT22;12762;51.730;5.356;2024-02-28T09:18:04;5.40;86.70
24618;DHT22;12762;51.730;5.356;2024-02-28T09:20:33;5.50;86.80
24618;DHT22;12762;51.730;5.356;2024-02-28T09:23:00;5.60;86.80
24618;DHT22;12762;51.730;5.356;2024-02-28T09:25:26;5.60;86.70
24618;DHT22;12762;51.730;5.356;2024-02-28T09:27:55;5.70;86.80
24618;DHT22;12762;51.730;5.356;2024-02-28T09:30:22;5.70;86.80
24618;DHT22;12762;51.730;5.356;2024-02-28T09:32:50;5.80;86.90
24618;DHT22;12762;51.730;5.356;2024-02-28T09:35:19;5.80;86.90
24618;DHT22;12762;51.730;5.356;2024-02-28T09:37:46;5.90;86.90
24618;DHT22;12762;51.730;5.356;2024-02-28T09:40:13;5.90;86.80
24618;DHT22;12762;51.730;5.356;2024-02-28T09:42:40;5.90;86.80
24618;DHT22;12762;51.730;5.356;2024-02-28T09:45:09;6.00;86.80
24618;DHT22;12762;51.730;5.356;2024-02-28T09:47:36;6.00;86.80
24618;DHT22;12762;51.730;5.356;2024-02-28T09:50:04;6.00;86.80
24618;DHT22;12762;51.730;5.356;2024-02-28T09:52:31;6.00;86.90
24618;DHT22;12762;51.730;5.356;2024-02-28T09:54:58;6.00;86.90
24618;DHT22;12762;51.730;5.356;2024-02-28T09:57:25;6.10;87.00
24618;DHT22;12762;51.730;5.356;2024-02-28T10:00:02;6.10;87.00
24618;DHT22;12762;51.730;5.356;2024-02-28T10:02:29;6.10;87.00
24618;DHT22;12762;51.730;5.356;2024-02-28T10:04:58;6.20;87.10
24618;DHT22;12762;51.730;5.356;2024-02-28T10:07:25;6.20;87.10
24618;DHT22;12762;51.730;5.356;2024-02-28T10:09:52;6.30;87.30
24618;DHT22;12762;51.730;5.356;2024-02-28T10:12:20;6.40;87.40
24618;DHT22;12762;51.730;5.356;2024-02-28T10:14:55;6.50;87.40
24618;DHT22;12762;51.730;5.356;2024-02-28T10:17:22;6.50;87.40
24618;DHT22;12762;51.730;5.356;2024-02-28T10:19:52;6.60;87.40
24618;DHT22;12762;51.730;5.356;2024-02-28T10:22:18;6.70;87.50
24618;DHT22;12762;51.730;5.356;2024-02-28T10:24:45;6.70;87.30
24618;DHT22;12762;51.730;5.356;2024-02-28T10:27:16;6.70;87.20
24618;DHT22;12762;51.730;5.356;2024-02-28T10:29:44;6.80;87.40
24618;DHT22;12762;51.730;5.356;2024-02-28T10:32:13;6.80;87.40
24618;DHT22;12762;51.730;5.356;2024-02-28T10:34:40;6.80;87.30
24618;DHT22;12762;51.730;5.356;2024-02-28T10:37:07;6.90;87.50
24618;DHT22;12762;51.730;5.356;2024-02-28T10:39:35;6.90;87.50
24618;DHT22;12762;51.730;5.356;2024-02-28T10:42:03;6.90;87.50
24618;DHT22;12762;51.730;5.356;2024-02-28T10:44:31;7.00;87.60
24618;DHT22;12762;51.730;5.356;2024-02-28T10:47:00;7.10;87.70
24618;DHT22;12762;51.730;5.356;2024-02-28T10:49:28;7.10;87.70
24618;DHT22;12762;51.730;5.356;2024-02-28T10:51:58;7.20;87.70
24618;DHT22;12762;51.730;5.356;2024-02-28T10:54:29;7.30;87.80
24618;DHT22;12762;51.730;5.356;2024-02-28T10:56:57;7.30;87.70
24618;DHT22;12762;51.730;5.356;2024-02-28T10:59:25;7.40;87.80
24618;DHT22;12762;51.730;5.356;2024-02-28T11:01:54;7.50;87.90
24618;DHT22;12762;51.730;5.356;2024-02-28T11:04:21;7.60;88.00
24618;DHT22;12762;51.730;5.356;2024-02-28T11:06:50;7.70;88.00
24618;DHT22;12762;51.730;5.356;2024-02-28T11:09:22;7.70;87.70
24618;DHT22;12762;51.730;5.356;2024-02-28T11:11:50;7.80;87.90
24618;DHT22;12762;51.730;5.356;2024-02-28T11:14:18;7.90;87.90
24618;DHT22;12762;51.730;5.356;2024-02-28T11:16:59;8.00;88.00
24618;DHT22;12762;51.730;5.356;2024-02-28T11:19:29;8.10;88.20
24618;DHT22;12762;51.730;5.356;2024-02-28T11:22:01;8.40;88.40
24618;DHT22;12762;51.730;5.356;2024-02-28T11:24:33;8.60;88.50
24618;DHT22;12762;51.730;5.356;2024-02-28T11:27:00;8.80;88.30
24618;DHT22;12762;51.730;5.356;2024-02-28T11:29:29;8.90;88.10
24618;DHT22;12762;51.730;5.356;2024-02-28T11:31:57;9.10;88.20
24618;DHT22;12762;51.730;5.356;2024-02-28T11:34:24;9.20;88.00
24618;DHT22;12762;51.730;5.356;2024-02-28T11:36:51;9.40;88.10
24618;DHT22;12762;51.730;5.356;2024-02-28T11:39:19;9.50;87.90
24618;DHT22;12762;51.730;5.356;2024-02-28T11:41:48;9.70;87.80
24618;DHT22;12762;51.730;5.356;2024-02-28T11:44:16;9.70;87.50
24618;DHT22;12762;51.730;5.356;2024-02-28T11:49:16;9.80;87.10
24618;DHT22;12762;51.730;5.356;2024-02-28T11:51:44;9.80;87.20
24618;DHT22;12762;51.730;5.356;2024-02-28T11:54:12;9.90;87.30
24618;DHT22;12762;51.730;5.356;2024-02-28T11:56:40;9.90;87.20
24618;DHT22;12762;51.730;5.356;2024-02-28T11:59:08;10.00;86.20
24618;DHT22;12762;51.730;5.356;2024-02-28T12:01:41;10.00;86.20
24618;DHT22;12762;51.730;5.356;2024-02-28T12:04:11;10.10;86.10
24618;DHT22;12762;51.730;5.356;2024-02-28T12:06:39;10.10;86.00
24618;DHT22;12762;51.730;5.356;2024-02-28T12:09:07;10.20;86.20
24618;DHT22;12762;51.730;5.356;2024-02-28T12:11:36;10.30;86.10
24618;DHT22;12762;51.730;5.356;2024-02-28T12:14:07;10.20;86.50
24618;DHT22;12762;51.730;5.356;2024-02-28T12:16:39;10.20;85.70
24618;DHT22;12762;51.730;5.356;2024-02-28T12:19:11;10.30;86.10
24618;DHT22;12762;51.730;5.356;2024-02-28T12:21:39;10.30;86.10
24618;DHT22;12762;51.730;5.356;2024-02-28T12:24:10;10.40;86.20
24618;DHT22;12762;51.730;5.356;2024-02-28T12:26:38;10.50;86.20
24618;DHT22;12762;51.730;5.356;2024-02-28T12:29:06;10.60;86.10
24618;DHT22;12762;51.730;5.356;2024-02-28T12:31:33;10.60;86.00
24618;DHT22;12762;51.730;5.356;2024-02-28T12:34:00;10.70;86.00
24618;DHT22;12762;51.730;5.356;2024-02-28T12:36:27;10.80;86.00
24618;DHT22;12762;51.730;5.356;2024-02-28T12:38:54;10.90;86.00
24618;DHT22;12762;51.730;5.356;2024-02-28T12:41:20;11.00;85.80
24618;DHT22;12762;51.730;5.356;2024-02-28T12:43:47;11.10;85.60
24618;DHT22;12762;51.730;5.356;2024-02-28T12:46:14;11.10;85.40
24618;DHT22;12762;51.730;5.356;2024-02-28T12:48:42;11.10;85.20
24618;DHT22;12762;51.730;5.356;2024-02-28T12:51:35;11.10;85.60
24618;DHT22;12762;51.730;5.356;2024-02-28T12:54:02;11.10;85.10
24618;DHT22;12762;51.730;5.356;2024-02-28T12:56:29;11.00;85.00
24618;DHT22;12762;51.730;5.356;2024-02-28T12:58:59;11.00;85.10
24618;DHT22;12762;51.730;5.356;2024-02-28T13:01:27;11.00;85.00
24618;DHT22;12762;51.730;5.356;2024-02-28T13:03:54;11.00;85.00
24618;DHT22;12762;51.730;5.356;2024-02-28T13:06:24;10.90;85.10
24618;DHT22;12762;51.730;5.356;2024-02-28T13:08:51;10.90;85.10
24618;DHT22;12762;51.730;5.356;2024-02-28T13:11:24;11.00;85.30
24618;DHT22;12762;51.730;5.356;2024-02-28T13:13:52;11.00;85.00
24618;DHT22;12762;51.730;5.356;2024-02-28T13:16:22;11.00;85.00
24618;DHT22;12762;51.730;5.356;2024-02-28T13:18:49;11.10;85.20
24618;DHT22;12762;51.730;5.356;2024-02-28T13:21:16;11.10;85.10
24618;DHT22;12762;51.730;5.356;2024-02-28T13:23:42;11.10;84.80
24618;DHT22;12762;51.730;5.356;2024-02-28T13:26:09;11.10;84.70
24618;DHT22;12762;51.730;5.356;2024-02-28T13:28:44;11.10;84.60
24618;DHT22;12762;51.730;5.356;2024-02-28T13:31:16;11.00;84.40
24618;DHT22;12762;51.730;5.356;2024-02-28T13:33:43;11.00;84.50
24618;DHT22;12762;51.730;5.356;2024-02-28T13:36:10;10.90;84.40
24618;DHT22;12762;51.730;5.356;2024-02-28T13:38:37;10.90;84.30
24618;DHT22;12762;51.730;5.356;2024-02-28T13:41:04;10.80;84.30
24618;DHT22;12762;51.730;5.356;2024-02-28T13:43:31;10.80;84.50
24618;DHT22;12762;51.730;5.356;2024-02-28T13:45:58;10.80;84.50
24618;DHT22;12762;51.730;5.356;2024-02-28T13:48:27;10.70;84.60
24618;DHT22;12762;51.730;5.356;2024-02-28T13:50:59;10.70;85.50
24618;DHT22;12762;51.730;5.356;2024-02-28T13:53:26;10.80;84.80
24618;DHT22;12762;51.730;5.356;2024-02-28T13:55:54;10.80;84.90
24618;DHT22;12762;51.730;5.356;2024-02-28T13:58:21;10.80;84.60
24618;DHT22;12762;51.730;5.356;2024-02-28T14:00:47;10.70;84.50
24618;DHT22;12762;51.730;5.356;2024-02-28T14:03:28;10.70;84.40
24618;DHT22;12762;51.730;5.356;2024-02-28T14:06:02;10.60;84.50
24618;DHT22;12762;51.730;5.356;2024-02-28T14:08:29;10.60;84.60
24618;DHT22;12762;51.730;5.356;2024-02-28T14:11:03;10.60;84.70
24618;DHT22;12762;51.730;5.356;2024-02-28T14:13:31;10.60;84.80
24618;DHT22;12762;51.730;5.356;2024-02-28T14:15:58;10.60;84.80
24618;DHT22;12762;51.730;5.356;2024-02-28T14:18:34;10.60;84.60
24618;DHT22;12762;51.730;5.356;2024-02-28T14:21:02;10.70;84.90
24618;DHT22;12762;51.730;5.356;2024-02-28T14:23:33;10.70;84.70
24618;DHT22;12762;51.730;5.356;2024-02-28T14:26:00;10.70;84.60
24618;DHT22;12762;51.730;5.356;2024-02-28T14:28:27;10.70;84.40
24618;DHT22;12762;51.730;5.356;2024-02-28T14:30:56;10.60;84.10
24618;DHT22;12762;51.730;5.356;2024-02-28T14:33:23;10.50;84.20
24618;DHT22;12762;51.730;5.356;2024-02-28T14:35:50;10.50;84.40
24618;DHT22;12762;51.730;5.356;2024-02-28T14:38:18;10.50;84.40
24618;DHT22;12762;51.730;5.356;2024-02-28T14:40:45;10.50;84.30
24618;DHT22;12762;51.730;5.356;2024-02-28T14:43:11;10.50;84.40
24618;DHT22;12762;51.730;5.356;2024-02-28T14:45:38;10.40;84.30
24618;DHT22;12762;51.730;5.356;2024-02-28T14:48:07;10.40;84.40
24618;DHT22;12762;51.730;5.356;2024-02-28T14:50:34;10.40;84.50
24618;DHT22;12762;51.730;5.356;2024-02-28T14:53:03;10.40;84.50
24618;DHT22;12762;51.730;5.356;2024-02-28T14:55:29;10.40;84.40
24618;DHT22;12762;51.730;5.356;2024-02-28T14:58:05;10.30;84.40
24618;DHT22;12762;51.730;5.356;2024-02-28T15:00:32;10.30;84.60
24618;DHT22;12762;51.730;5.356;2024-02-28T15:02:59;10.30;84.50
24618;DHT22;12762;51.730;5.356;2024-02-28T15:05:26;10.30;84.60
24618;DHT22;12762;51.730;5.356;2024-02-28T15:07:53;10.30;84.60
24618;DHT22;12762;51.730;5.356;2024-02-28T15:10:21;10.20;84.50
24618;DHT22;12762;51.730;5.356;2024-02-28T15:12:48;10.20;84.70
24618;DHT22;12762;51.730;5.356;2024-02-28T15:15:15;10.20;84.60
24618;DHT22;12762;51.730;5.356;2024-02-28T15:17:42;10.20;84.60
24618;DHT22;12762;51.730;5.356;2024-02-28T15:20:09;10.20;84.80
24618;DHT22;12762;51.730;5.356;2024-02-28T15:22:36;10.20;84.80
24618;DHT22;12762;51.730;5.356;2024-02-28T15:25:03;10.30;85.00
24618;DHT22;12762;51.730;5.356;2024-02-28T15:27:30;10.30;84.90
24618;DHT22;12762;51.730;5.356;2024-02-28T15:29:59;10.30;84.80
24618;DHT22;12762;51.730;5.356;2024-02-28T15:32:26;10.30;84.90
24618;DHT22;12762;51.730;5.356;2024-02-28T15:34:53;10.30;85.10
24618;DHT22;12762;51.730;5.356;2024-02-28T15:37:19;10.30;84.80
24618;DHT22;12762;51.730;5.356;2024-02-28T15:39:46;10.20;84.80
24618;DHT22;12762;51.730;5.356;2024-02-28T15:42:15;10.20;84.80
24618;DHT22;12762;51.730;5.356;2024-02-28T15:44:42;10.20;84.80
24618;DHT22;12762;51.730;5.356;2024-02-28T15:47:09;10.20;84.80